Time;durP1;ratioP1;P1;durP2;ratioP2;P2;SDS_P1;SDS_P2;PMS_P1;PMS_P2;Temp;Humidity;BMP_temperature;BMP_pressure;BME280_temperature;BME280_humidity;BME280_pressure;Samples;Min_cycle;Max_cycle;Signal;HPM_P1;HPM_P2
2023/01/30 00:00:42;;;;;;;43.97;17.23;;;;;;;2.14;100.00;100551.81;7391047;19;20439;-61
2023/01/30 00:03:12;;;;;;;31.80;14.27;;;;;;;2.16;100.00;100540.97;7396295;19;20400;-61
2023/01/30 00:05:44;;;;;;;36.17;11.03;;;;;;;2.19;100.00;100544.53;7392631;19;20387;-62
2023/01/30 00:08:13;;;;;;;56.60;19.40;;;;;;;2.19;100.00;100539.44;7397339;19;20400;-60
2023/01/30 00:10:44;;;;;;;54.17;22.47;;;;;;;2.23;100.00;100542.31;7392904;19;20813;-61
2023/01/30 00:13:15;;;;;;;48.90;17.27;;;;;;;2.24;100.00;100544.06;7396694;19;20404;-61
2023/01/30 00:15:45;;;;;;;56.30;20.30;;;;;;;2.21;100.00;100555.69;7394369;19;20408;-60
2023/01/30 00:18:15;;;;;;;60.73;23.53;;;;;;;2.24;100.00;100559.34;7396966;19;20401;-58
2023/01/30 00:20:47;;;;;;;45.53;18.07;;;;;;;2.26;100.00;100565.41;7391576;19;20652;-61
2023/01/30 00:23:16;;;;;;;37.83;13.90;;;;;;;2.34;100.00;100531.97;7396891;19;20406;-61
2023/01/30 00:25:47;;;;;;;47.07;18.17;;;;;;;2.34;100.00;100521.78;7392079;19;20416;-62
2023/01/30 00:28:16;;;;;;;44.27;16.87;;;;;;;2.34;100.00;100511.59;7396811;19;20416;-61
2023/01/30 00:30:46;;;;;;;45.13;18.90;;;;;;;2.36;100.00;100503.31;7391931;19;20432;-61
2023/01/30 00:33:15;;;;;;;53.37;20.00;;;;;;;2.38;100.00;100495.78;7396635;19;20926;-62
2023/01/30 00:35:48;;;;;;;47.37;20.87;;;;;;;2.39;100.00;100498.44;7392527;19;20387;-61
2023/01/30 00:38:18;;;;;;;25.60;11.43;;;;;;;2.39;100.00;100488.25;7396272;19;20423;-60
2023/01/30 00:40:48;;;;;;;32.70;12.47;;;;;;;2.46;100.00;100496.34;7392058;19;20989;-61
2023/01/30 00:48:46;;;;;;;26.87;12.30;;;;;;;2.50;100.00;100463.53;7395221;19;20423;-61
2023/01/30 00:51:18;;;;;;;46.40;18.17;;;;;;;2.58;100.00;100458.09;7391434;19;20411;-62
2023/01/30 00:53:47;;;;;;;37.00;13.53;;;;;;;2.58;100.00;100455.53;7395404;19;20414;-59
2023/01/30 00:56:17;;;;;;;34.40;15.63;;;;;;;2.63;100.00;100441.47;7390954;19;20415;-62
2023/01/30 00:58:46;;;;;;;36.10;12.20;;;;;;;2.61;100.00;100440.47;7395520;19;20924;-61
2023/01/30 01:01:16;;;;;;;39.13;16.17;;;;;;;2.64;100.00;100448.31;7390494;19;20435;-61
2023/01/30 01:03:45;;;;;;;46.20;18.90;;;;;;;2.66;100.00;100421.31;7394674;19;20387;-63
2023/01/30 01:06:17;;;;;;;42.60;14.27;;;;;;;2.68;100.00;100432.47;7390653;19;20418;-60
2023/01/30 01:08:47;;;;;;;38.43;16.70;;;;;;;2.71;100.00;100442.84;7394975;19;20420;-61
2023/01/30 01:11:23;;;;;;;54.53;22.57;;;;;;;2.75;100.00;100421.03;7391565;19;20403;-61
2023/01/30 01:13:54;;;;;;;45.77;17.43;;;;;;;2.74;100.00;100422.69;7394985;19;20422;-62
2023/01/30 01:16:25;;;;;;;32.17;15.27;;;;;;;2.75;100.00;100409.19;7392006;19;20452;-60
2023/01/30 01:18:55;;;;;;;43.00;18.13;;;;;;;2.76;100.00;100403.28;7395081;19;20797;-60
2023/01/30 01:21:27;;;;;;;25.10;9.63;;;;;;;2.77;100.00;100399.97;7390261;19;20442;-58
2023/01/30 01:23:59;;;;;;;45.23;15.80;;;;;;;2.80;100.00;100386.53;7394231;19;20414;-60
2023/01/30 01:26:29;;;;;;;42.20;15.13;;;;;;;2.82;100.00;100383.31;7388952;19;20447;-61
2023/01/30 01:28:59;;;;;;;52.20;23.83;;;;;;;2.83;100.00;100359.59;7394468;19;20404;-61
2023/01/30 01:31:28;;;;;;;41.10;15.40;;;;;;;2.84;100.00;100381.75;7390966;19;20946;-61
2023/01/30 01:33:58;;;;;;;34.80;14.83;;;;;;;2.86;100.00;100358.06;7394172;19;20400;-61
2023/01/30 01:36:30;;;;;;;38.40;15.20;;;;;;;2.89;100.00;100368.44;7391810;19;20428;-57
2023/01/30 01:39:20;;;;;;;45.90;16.20;;;;;;;2.90;100.00;100358.34;7392621;19;20384;-61
2023/01/30 01:41:47;;;;;;;46.53;16.13;;;;;;;2.94;100.00;100360.34;7389797;19;20455;-58
2023/01/30 01:44:16;;;;;;;39.93;17.93;;;;;;;2.95;100.00;100351.00;7394859;19;20774;-57
2023/01/30 01:46:48;;;;;;;48.63;14.90;;;;;;;2.94;100.00;100347.59;7389428;19;20411;-61
2023/01/30 01:49:22;;;;;;;43.10;15.90;;;;;;;2.95;100.00;100339.16;7393972;19;20404;-61
2023/01/30 01:51:58;;;;;;;35.30;12.40;;;;;;;2.94;100.00;100332.31;7389451;19;20435;-62
2023/01/30 01:54:32;;;;;;;34.27;15.63;;;;;;;2.97;100.00;100329.03;7394995;19;20415;-63
2023/01/30 01:57:04;;;;;;;25.00;10.53;;;;;;;2.95;100.00;100323.88;7389718;19;20823;-59
2023/01/30 01:59:38;;;;;;;50.47;17.37;;;;;;;3.01;100.00;100317.38;7392788;19;20954;-60
2023/01/30 02:02:10;;;;;;;33.83;13.47;;;;;;;3.02;100.00;100312.38;7389864;19;20435;-61
2023/01/30 02:07:28;;;;;;;27.13;11.10;;;;;;;3.05;100.00;100304.06;7390618;19;20459;-62
2023/01/30 02:09:59;;;;;;;40.87;14.13;;;;;;;3.08;100.00;100277.09;7400414;19;20395;-62
2023/01/30 02:12:28;;;;;;;33.07;12.97;;;;;;;3.09;100.00;100270.34;7398163;19;20454;-61
2023/01/30 02:14:59;;;;;;;23.63;9.40;;;;;;;3.09;100.00;100255.91;7400997;19;20395;-59
2023/01/30 02:17:29;;;;;;;21.70;9.53;;;;;;;3.06;100.00;100242.09;7397238;19;20439;-61
2023/01/30 02:20:05;;;;;;;32.20;12.67;;;;;;;3.01;100.00;100272.41;7400218;19;20411;-62
2023/01/30 02:23:17;;;;;;;34.73;12.40;;;;;;;3.02;100.00;100233.38;7396874;19;21126;-60
2023/01/30 02:26:05;;;;;;;38.43;14.03;;;;;;;3.03;100.00;100230.03;7395908;19;20414;-57
2023/01/30 02:28:53;;;;;;;24.00;9.47;;;;;;;3.05;100.00;100231.03;7400172;19;20399;-52
2023/01/30 02:31:34;;;;;;;59.83;22.80;;;;;;;3.05;100.00;100208.09;7396439;19;20407;-59
2023/01/30 02:34:13;;;;;;;39.80;13.97;;;;;;;3.04;100.00;100219.06;7400276;19;20428;-59
2023/01/30 02:36:53;;;;;;;33.13;14.07;;;;;;;3.06;100.00;100196.22;7395583;19;20969;-59
2023/01/30 02:39:30;;;;;;;25.63;11.33;;;;;;;3.10;100.00;100155.72;7400395;19;20411;-57
2023/01/30 02:42:04;;;;;;;29.50;13.77;;;;;;;3.17;100.00;100131.47;7392049;19;20442;-59
2023/01/30 02:44:40;;;;;;;42.33;15.70;;;;;;;3.20;100.00;100090.00;7400161;19;20394;-60
2023/01/30 02:47:15;;;;;;;23.77;9.07;;;;;;;3.19;100.00;99987.13;7395858;19;20802;-59
2023/01/30 02:49:49;;;;;;;20.40;10.17;;;;;;;3.21;100.00;99954.97;7398495;19;20419;-60
2023/01/30 02:52:18;;;;;;;32.67;14.10;;;;;;;3.22;100.00;99940.53;7395911;19;20439;-57
2023/01/30 02:54:48;;;;;;;30.80;12.00;;;;;;;3.28;100.00;99914.53;7399123;19;20403;-60
2023/01/30 02:57:21;;;;;;;25.13;9.60;;;;;;;3.27;100.00;99903.44;7396374;19;20976;-59
2023/01/30 02:59:55;;;;;;;34.60;15.47;;;;;;;3.31;100.00;99884.97;7398651;19;20783;-54
2023/01/30 03:03:09;;;;;;;24.93;10.40;;;;;;;3.32;100.00;99863.78;7395559;19;20438;-57
2023/01/30 03:05:49;;;;;;;33.03;12.27;;;;;;;3.36;100.00;99842.78;7395826;19;20958;-58
2023/01/30 03:08:27;;;;;;;24.70;11.90;;;;;;;3.40;100.00;99841.28;7399166;19;20515;-59
2023/01/30 03:11:00;;;;;;;14.57;4.73;;;;;;;3.41;100.00;99829.38;7394769;19;22035;-57
2023/01/30 03:13:36;;;;;;;22.70;10.73;;;;;;;3.41;100.00;99814.09;7398461;19;20421;-58
2023/01/30 03:16:08;;;;;;;32.40;13.17;;;;;;;3.41;100.00;99806.44;7395210;19;20427;-59
2023/01/30 03:18:42;;;;;;;33.67;13.80;;;;;;;3.44;100.00;99786.22;7398215;19;20483;-58
2023/01/30 03:21:13;;;;;;;21.43;9.53;;;;;;;3.44;100.00;99773.47;7392788;19;20419;-55
2023/01/30 03:23:42;;;;;;;32.50;12.33;;;;;;;3.46;100.00;99772.75;7398544;19;20400;-57
2023/01/30 03:26:17;;;;;;;22.07;10.40;;;;;;;3.48;100.00;99766.06;7394204;19;20444;-55
2023/01/30 03:28:48;;;;;;;25.60;11.73;;;;;;;3.50;100.00;99756.81;7398095;19;20407;-58
2023/01/30 03:31:17;;;;;;;8.03;5.07;;;;;;;3.52;100.00;99731.38;7394047;19;20449;-57
2023/01/30 03:33:50;;;;;;;30.67;11.87;;;;;;;3.52;100.00;99741.59;7397707;19;20770;-57
2023/01/30 03:36:20;;;;;;;24.03;10.23;;;;;;;3.56;100.00;99709.47;7394703;19;20419;-55
2023/01/30 03:38:49;;;;;;;24.60;11.60;;;;;;;3.58;100.00;99786.97;7397863;19;20399;-58
2023/01/30 03:41:19;;;;;;;26.80;12.70;;;;;;;3.58;100.00;99685.81;7391716;19;20414;-57
2023/01/30 03:43:48;;;;;;;25.93;10.23;;;;;;;3.60;100.00;99689.28;7397697;19;20412;-57
2023/01/30 03:46:18;;;;;;;17.60;8.93;;;;;;;3.60;100.00;99684.19;7394368;19;20443;-54
2023/01/30 03:48:50;;;;;;;15.33;6.70;;;;;;;3.62;100.00;99662.22;7397128;19;20407;-55
2023/01/30 03:51:19;;;;;;;20.73;8.63;;;;;;;3.61;100.00;99660.47;7393501;19;20414;-53
2023/01/30 03:53:49;;;;;;;22.47;8.77;;;;;;;3.61;100.00;99655.38;7397279;19;20407;-57
2023/01/30 03:56:18;;;;;;;37.50;14.30;;;;;;;3.63;100.00;99653.75;7394414;19;20423;-55
2023/01/30 03:58:48;;;;;;;23.43;8.10;;;;;;;3.65;100.00;99638.53;7398454;19;20407;-55
2023/01/30 04:01:17;;;;;;;28.73;11.40;;;;;;;3.65;100.00;99654.69;7392570;19;20938;-59
2023/01/30 04:03:49;;;;;;;23.37;11.30;;;;;;;3.70;100.00;99656.63;7397425;19;20399;-56
2023/01/30 04:06:19;;;;;;;20.43;10.17;;;;;;;3.69;100.00;99690.59;7393491;19;20470;-54
2023/01/30 04:08:48;;;;;;;17.50;7.00;;;;;;;3.40;100.00;99693.38;7396949;19;20395;-57
2023/01/30 04:11:17;;;;;;;14.80;5.23;;;;;;;3.18;100.00;99668.38;7392010;19;20411;-57
2023/01/30 04:13:47;;;;;;;10.43;3.93;;;;;;;3.00;100.00;99665.69;7397058;19;20396;-55
2023/01/30 04:16:19;;;;;;;18.90;3.17;;;;;;;2.96;100.00;99651.91;7392970;19;20411;-56
2023/01/30 04:18:51;;;;;;;7.90;2.30;;;;;;;2.89;100.00;99653.25;7397200;19;20477;-55
2023/01/30 04:21:21;;;;;;;12.80;2.53;;;;;;;2.84;100.00;99647.88;7392537;19;20415;-53
2023/01/30 04:23:50;;;;;;;10.50;2.63;;;;;;;2.86;100.00;99627.59;7396768;19;20476;-53
2023/01/30 04:26:20;;;;;;;7.10;1.73;;;;;;;2.86;100.00;99627.59;7392227;19;20430;-54
2023/01/30 04:28:49;;;;;;;4.40;1.40;;;;;;;2.87;100.00;99620.84;7396411;19;20396;-56
2023/01/30 04:31:19;;;;;;;9.30;1.90;;;;;;;2.88;100.00;99617.50;7389120;19;20405;-52
2023/01/30 04:33:51;;;;;;;5.10;1.60;;;;;;;2.88;100.00;99602.22;7396005;19;20425;-57
2023/01/30 04:36:20;;;;;;;10.07;1.80;;;;;;;2.88;100.00;99597.09;7392930;19;20410;-53
2023/01/30 04:38:50;;;;;;;3.53;1.50;;;;;;;2.90;100.00;99601.50;7396203;19;20947;-57
2023/01/30 04:41:19;;;;;;;7.90;1.77;;;;;;;2.93;100.00;99603.34;7392180;19;20438;-55
2023/01/30 04:43:49;;;;;;;5.67;1.57;;;;;;;2.97;100.00;99582.31;7395780;19;20399;-52
2023/01/30 04:46:18;;;;;;;14.70;2.27;;;;;;;2.97;100.00;99593.38;7390763;19;20403;-52
2023/01/30 04:48:50;;;;;;;8.67;1.90;;;;;;;3.03;100.00;99577.53;7395397;19;20410;-55
2023/01/30 04:51:19;;;;;;;12.17;3.10;;;;;;;3.05;100.00;99565.78;7391369;19;20431;-53
2023/01/30 04:53:49;;;;;;;5.37;1.40;;;;;;;3.04;100.00;99553.81;7395520;19;20395;-54
2023/01/30 04:56:18;;;;;;;12.20;2.10;;;;;;;3.05;100.00;99550.47;7392632;19;20423;-54
2023/01/30 04:58:48;;;;;;;8.63;2.07;;;;;;;3.05;100.00;99542.81;7395473;19;20410;-53
2023/01/30 05:01:23;;;;;;;5.47;1.90;;;;;;;3.09;100.00;99560.00;7387660;19;21420;-52
2023/01/30 05:03:55;;;;;;;6.13;1.57;;;;;;;3.12;100.00;99544.00;7395472;19;20459;-52
2023/01/30 05:06:25;;;;;;;4.60;2.10;;;;;;;3.13;100.00;99547.44;7392303;19;20867;-53
2023/01/30 05:08:56;;;;;;;9.13;2.50;;;;;;;3.16;100.00;99550.13;7393348;19;20487;-53
2023/01/30 05:11:27;;;;;;;14.43;1.90;;;;;;;3.18;100.00;99540.91;7391310;19;20805;-54
2023/01/30 05:13:57;;;;;;;9.80;1.70;;;;;;;3.18;100.00;99553.66;7395470;19;20416;-51
2023/01/30 05:16:27;;;;;;;10.37;1.67;;;;;;;3.18;100.00;99558.78;7390683;19;20438;-51
2023/01/30 05:18:59;;;;;;;8.40;2.40;;;;;;;3.21;100.00;99534.31;7395452;19;20395;-53
2023/01/30 05:21:29;;;;;;;12.67;2.40;;;;;;;3.25;100.00;99543.00;7390766;19;20430;-51
2023/01/30 05:23:59;;;;;;;17.00;2.57;;;;;;;3.26;100.00;99544.72;7395322;19;20396;-51
2023/01/30 05:26:28;;;;;;;9.53;2.13;;;;;;;3.29;100.00;99533.81;7392409;19;20435;-55
2023/01/30 05:28:59;;;;;;;16.73;2.20;;;;;;;3.31;100.00;99530.56;7393376;19;20926;-52
2023/01/30 05:31:28;;;;;;;18.13;2.90;;;;;;;3.28;100.00;99517.63;7390891;19;20446;-52
2023/01/30 05:34:00;;;;;;;12.33;2.90;;;;;;;3.28;100.00;99525.28;7394296;19;20411;-56
2023/01/30 05:36:30;;;;;;;19.17;2.20;;;;;;;3.27;100.00;99526.09;7390069;19;20438;-56
2023/01/30 05:38:59;;;;;;;9.80;2.20;;;;;;;3.28;100.00;99538.03;7394501;19;20923;-56
2023/01/30 05:41:29;;;;;;;16.87;3.03;;;;;;;3.27;100.00;99520.13;7390709;19;20435;-52
2023/01/30 05:43:58;;;;;;;6.83;2.00;;;;;;;3.25;100.00;99520.03;7393260;19;20933;-55
2023/01/30 05:46:28;;;;;;;12.13;2.33;;;;;;;3.24;100.00;99515.75;7389622;19;20993;-52
2023/01/30 05:49:00;;;;;;;19.10;1.93;;;;;;;3.21;100.00;99513.03;7392124;19;20440;-53
2023/01/30 05:51:30;;;;;;;11.37;2.13;;;;;;;3.17;100.00;99513.69;7388462;19;20446;-58
2023/01/30 05:53:59;;;;;;;18.33;2.57;;;;;;;3.14;100.00;99511.84;7393712;19;21074;-58
2023/01/30 05:56:31;;;;;;;18.20;2.17;;;;;;;3.15;100.00;99510.16;7391349;19;20450;-52
2023/01/30 05:59:03;;;;;;;14.70;2.30;;;;;;;3.14;100.00;99508.41;7394052;19;20392;-54
2023/01/30 06:01:33;;;;;;;34.10;3.10;;;;;;;3.07;100.00;99497.91;7388414;19;20439;-50
2023/01/30 06:04:05;;;;;;;17.97;2.13;;;;;;;3.05;100.00;99509.69;7394216;19;20415;-53
2023/01/30 06:06:35;;;;;;;11.17;1.93;;;;;;;3.03;100.00;99501.06;7389514;19;20444;-52
2023/01/30 06:09:04;;;;;;;10.83;1.73;;;;;;;3.02;100.00;99509.53;7391363;19;20418;-57
2023/01/30 06:11:34;;;;;;;15.23;2.10;;;;;;;3.02;100.00;99514.63;7387657;19;20439;-56
2023/01/30 06:14:03;;;;;;;10.47;2.60;;;;;;;3.04;100.00;99532.53;7393382;19;20958;-60
2023/01/30 06:16:33;;;;;;;14.47;2.77;;;;;;;2.99;100.00;99533.97;7389092;19;20446;-57
2023/01/30 06:19:05;;;;;;;11.03;2.70;;;;;;;2.97;100.00;99516.94;7393567;19;20406;-57
2023/01/30 06:21:34;;;;;;;17.60;2.00;;;;;;;2.96;100.00;99530.47;7387553;19;20427;-52
2023/01/30 06:24:04;;;;;;;9.50;1.83;;;;;;;2.95;100.00;99538.91;7393511;19;20935;-55
2023/01/30 06:26:33;;;;;;;14.17;1.90;;;;;;;2.92;100.00;99542.97;7389006;19;20431;-58
2023/01/30 06:29:03;;;;;;;15.63;2.87;;;;;;;2.91;100.00;99537.00;7391402;19;20431;-57
2023/01/30 06:31:32;;;;;;;13.53;2.70;;;;;;;2.88;100.00;99543.59;7387099;19;20462;-56
2023/01/30 06:34:04;;;;;;;14.30;1.87;;;;;;;2.86;100.00;99555.41;7389237;19;20937;-53
2023/01/30 06:36:34;;;;;;;14.17;2.67;;;;;;;2.83;100.00;99549.31;7389105;19;20803;-53
2023/01/30 06:39:03;;;;;;;12.63;2.13;;;;;;;2.84;100.00;99568.91;7393687;19;20407;-53
2023/01/30 06:41:32;;;;;;;10.47;1.97;;;;;;;2.82;100.00;99567.09;7386087;19;20426;-55
2023/01/30 06:44:02;;;;;;;15.63;2.10;;;;;;;2.83;100.00;99564.59;7392697;19;20425;-57
2023/01/30 06:46:31;;;;;;;17.67;2.00;;;;;;;2.83;100.00;99574.78;7389980;19;20430;-57
2023/01/30 06:49:01;;;;;;;22.53;1.50;;;;;;;2.85;100.00;99567.25;7388592;19;20779;-54
2023/01/30 06:51:33;;;;;;;14.90;2.10;;;;;;;2.87;100.00;99567.34;7387661;19;20462;-55
2023/01/30 06:54:02;;;;;;;23.33;2.30;;;;;;;2.84;100.00;99575.69;7392036;19;20395;-58
2023/01/30 06:56:32;;;;;;;5.97;1.40;;;;;;;2.84;100.00;99563.81;7393883;19;20474;-55
2023/01/30 06:59:01;;;;;;;24.43;2.93;;;;;;;2.87;100.00;99565.66;7398543;19;20834;-56
2023/01/30 07:01:31;;;;;;;12.63;2.40;;;;;;;2.88;100.00;99569.97;7392607;19;20451;-56
2023/01/30 07:04:00;;;;;;;17.57;1.70;;;;;;;2.86;100.00;99568.13;7399170;19;20780;-57
2023/01/30 07:06:32;;;;;;;10.73;2.30;;;;;;;2.80;100.00;99556.81;7394963;19;20459;-56
2023/01/30 07:09:02;;;;;;;16.10;2.10;;;;;;;2.79;100.00;99552.53;7395763;19;20411;-55
2023/01/30 07:11:31;;;;;;;9.80;1.20;;;;;;;2.72;100.00;99549.56;7392901;19;20518;-57
2023/01/30 07:14:01;;;;;;;10.00;1.73;;;;;;;2.74;100.00;99555.59;7398057;19;20412;-59
2023/01/30 07:16:30;;;;;;;10.00;2.30;;;;;;;2.73;100.00;99552.19;7393309;19;20431;-59
2023/01/30 07:19:00;;;;;;;9.60;2.20;;;;;;;2.71;100.00;99566.50;7398591;19;20422;-54
2023/01/30 07:21:29;;;;;;;13.10;1.67;;;;;;;2.67;100.00;99560.34;7392429;19;20431;-57
2023/01/30 07:24:01;;;;;;;12.30;2.20;;;;;;;2.72;100.00;99570.78;7397823;19;20395;-58
2023/01/30 07:26:31;;;;;;;18.93;3.97;;;;;;;2.74;100.00;99564.13;7391470;19;20455;-56
2023/01/30 07:29:00;;;;;;;9.17;1.73;;;;;;;2.73;100.00;99567.47;7396538;19;20411;-59
2023/01/30 07:31:30;;;;;;;14.43;2.00;;;;;;;2.73;100.00;99576.78;7391202;19;20427;-58
2023/01/30 07:33:59;;;;;;;10.67;1.90;;;;;;;2.74;100.00;99583.63;7397505;19;20407;-59
2023/01/30 07:36:32;;;;;;;12.20;2.30;;;;;;;2.75;100.00;99586.25;7393831;19;20427;-56
2023/01/30 07:39:04;;;;;;;16.80;2.23;;;;;;;2.84;100.00;99603.72;7396772;19;20419;-57
2023/01/30 07:41:33;;;;;;;11.33;1.97;;;;;;;2.93;100.00;99616.06;7391788;19;20450;-59
2023/01/30 07:44:03;;;;;;;24.37;2.43;;;;;;;2.95;100.00;99617.91;7397255;19;20408;-59
2023/01/30 07:46:33;;;;;;;18.53;3.33;;;;;;;2.96;100.00;99626.41;7392963;19;20427;-60
2023/01/30 07:49:03;;;;;;;8.97;1.93;;;;;;;2.94;100.00;99633.13;7395788;19;20415;-58
2023/01/30 07:51:33;;;;;;;20.87;2.40;;;;;;;2.91;100.00;99659.31;7391398;19;21026;-60
2023/01/30 07:54:05;;;;;;;17.83;3.80;;;;;;;2.91;100.00;99655.88;7397523;19;20418;-60
2023/01/30 07:56:35;;;;;;;15.93;2.67;;;;;;;2.90;100.00;99679.59;7392054;19;20423;-60
2023/01/30 07:59:05;;;;;;;17.30;3.93;;;;;;;2.90;100.00;99689.78;7396722;19;20407;-59
2023/01/30 08:01:35;;;;;;;23.17;3.50;;;;;;;2.92;100.00;99703.53;7389500;19;20431;-58
2023/01/30 08:04:04;;;;;;;26.20;3.17;;;;;;;2.86;100.00;99766.88;7396830;19;20409;-58
2023/01/30 08:06:37;;;;;;;18.43;2.50;;;;;;;2.81;100.00;99759.84;7390991;19;20457;-59
2023/01/30 08:09:10;;;;;;;14.33;2.20;;;;;;;2.76;100.00;99798.59;7395307;19;20407;-59
2023/01/30 08:11:39;;;;;;;25.53;3.13;;;;;;;2.60;100.00;99843.53;7391601;19;20431;-60
2023/01/30 08:14:09;;;;;;;17.17;4.90;;;;;;;2.49;100.00;99812.34;7393777;19;20401;-50
2023/01/30 08:16:38;;;;;;;31.77;6.63;;;;;;;2.55;100.00;99812.72;7392815;19;20439;-48
2023/01/30 08:19:08;;;;;;;28.73;4.73;;;;;;;2.57;100.00;99833.19;7394087;19;20403;-49
2023/01/30 08:21:37;;;;;;;70.20;12.30;;;;;;;2.74;100.00;99854.53;7389324;19;20435;-51
2023/01/30 08:24:10;;;;;;;50.23;9.33;;;;;;;2.74;100.00;99859.63;7394010;19;20808;-51
2023/01/30 08:26:39;;;;;;;29.03;5.77;;;;;;;3.05;100.00;99870.72;7390807;19;20437;-53
2023/01/30 08:29:09;;;;;;;31.00;5.00;;;;;;;2.84;100.00;99876.34;7395810;19;21167;-60
2023/01/30 08:31:38;;;;;;;11.67;2.27;;;;;;;2.83;100.00;99890.75;7391437;19;20442;-56
2023/01/30 08:34:08;;;;;;;18.57;3.17;;;;;;;2.86;100.00;99892.59;7396043;19;20404;-57
2023/01/30 08:36:37;;;;;;;24.63;3.83;;;;;;;2.89;100.00;99886.78;7391928;19;20447;-61
2023/01/30 08:39:09;;;;;;;41.80;4.17;;;;;;;2.84;100.00;99905.22;7396207;19;20459;-58
2023/01/30 08:41:41;;;;;;;36.30;3.93;;;;;;;2.91;100.00;99918.34;7390818;19;20497;-57
2023/01/30 08:44:11;;;;;;;34.90;4.80;;;;;;;2.95;100.00;99933.03;7396316;19;20408;-58
2023/01/30 08:46:41;;;;;;;29.40;4.97;;;;;;;2.97;100.00;99959.47;7391956;19;20758;-59
2023/01/30 08:49:12;;;;;;;25.47;4.70;;;;;;;3.03;100.00;99992.97;7395406;19;20408;-56
2023/01/30 08:51:41;;;;;;;39.40;4.80;;;;;;;3.09;100.00;100017.97;7391244;19;20451;-57
2023/01/30 08:54:14;;;;;;;22.53;2.57;;;;;;;3.12;100.00;100052.97;7395916;19;20400;-58
2023/01/30 08:56:43;;;;;;;31.20;5.90;;;;;;;3.17;100.00;100065.19;7391602;19;20459;-58
2023/01/30 08:59:13;;;;;;;29.50;3.80;;;;;;;3.40;100.00;100085.22;7395694;19;20435;-65
2023/01/30 09:01:42;;;;;;;30.77;3.73;;;;;;;3.38;100.00;100103.88;7390807;19;20450;-64
2023/01/30 09:04:11;;;;;;;172.73;29.60;;;;;;;3.60;100.00;100124.69;7395818;19;20414;-64
2023/01/30 09:06:41;;;;;;;65.43;11.00;;;;;;;3.67;100.00;100134.47;7391570;19;21104;-64
2023/01/30 09:09:10;;;;;;;35.20;4.23;;;;;;;3.62;100.00;100131.63;7395451;19;20437;-64
2023/01/30 09:11:42;;;;;;;55.30;7.67;;;;;;;3.84;100.00;100145.66;7390647;19;20455;-65
2023/01/30 09:14:12;;;;;;;35.53;5.37;;;;;;;3.58;100.00;100151.78;7395495;19;20407;-65
2023/01/30 09:16:41;;;;;;;32.53;3.63;;;;;;;3.55;100.00;100149.03;7392732;19;20419;-65
2023/01/30 09:19:11;;;;;;;40.00;4.27;;;;;;;3.79;100.00;100157.25;7393826;19;20790;-65
2023/01/30 09:21:40;;;;;;;39.80;4.50;;;;;;;3.75;100.00;100168.09;7390444;19;20437;-66
2023/01/30 09:24:10;;;;;;;44.50;5.73;;;;;;;3.92;100.00;100179.31;7393774;19;20761;-65
2023/01/30 09:26:43;;;;;;;35.17;4.30;;;;;;;4.09;100.00;100175.19;7390742;19;20448;-65
2023/01/30 09:29:13;;;;;;;22.77;3.40;;;;;;;4.00;100.00;100185.72;7394690;19;20784;-66
2023/01/30 09:31:43;;;;;;;26.10;5.00;;;;;;;4.09;100.00;100204.97;7389504;19;20435;-52
2023/01/30 09:34:12;;;;;;;25.73;5.43;;;;;;;4.02;100.00;100217.38;7393389;19;20927;-56
2023/01/30 09:36:42;;;;;;;31.43;5.20;;;;;;;3.96;100.00;100223.75;7390619;19;20439;-56
2023/01/30 09:39:11;;;;;;;25.43;4.40;;;;;;;3.99;100.00;100234.16;7392357;19;20411;-54
2023/01/30 09:42:10;;;;;;;19.87;2.37;;;;;;;3.98;100.00;100251.16;7388085;19;20431;-58
2023/01/30 09:44:54;;;;;;;21.93;2.30;;;;;;;3.94;100.00;100273.84;7393945;19;20410;-56
2023/01/30 09:47:30;;;;;;;26.00;3.77;;;;;;;3.96;100.00;100277.38;7390497;19;20455;-58
2023/01/30 09:50:07;;;;;;;29.90;5.23;;;;;;;4.05;100.00;100285.56;7391848;19;20400;-59
2023/01/30 09:52:41;;;;;;;10.13;3.13;;;;;;;4.01;100.00;100293.84;7391428;19;20522;-55
2023/01/30 09:55:19;;;;;;;20.63;2.80;;;;;;;3.78;100.00;100285.66;7393917;19;20411;-60
2023/01/30 09:57:52;;;;;;;18.47;1.73;;;;;;;3.60;100.00;100314.34;7390219;19;20435;-56
2023/01/30 10:00:26;;;;;;;19.80;3.50;;;;;;;3.59;100.00;100299.81;7393093;19;20411;-58
2023/01/30 10:03:02;;;;;;;23.90;4.40;;;;;;;3.62;100.00;100304.25;7390067;19;20458;-55
2023/01/30 10:05:38;;;;;;;18.20;2.47;;;;;;;3.48;100.00;100303.38;7393642;19;21126;-56
2023/01/30 10:08:25;;;;;;;30.87;3.20;;;;;;;3.37;100.00;100300.13;7392085;19;20449;-61
2023/01/30 10:11:00;;;;;;;31.17;2.63;;;;;;;3.28;100.00;100272.38;7385091;19;20805;-60
2023/01/30 10:14:06;;;;;;;27.47;2.00;;;;;;;3.22;100.00;100280.53;7393364;19;20398;-59
2023/01/30 10:16:40;;;;;;;8.90;0.93;;;;;;;3.21;100.00;100260.03;7390229;19;20461;-58
2023/01/30 10:19:26;;;;;;;7.27;1.13;;;;;;;3.31;100.00;100267.50;7387568;19;20402;-60
2023/01/30 10:22:13;;;;;;;17.70;3.03;;;;;;;3.35;100.00;100266.88;7389750;19;20446;-60
2023/01/30 10:24:50;;;;;;;19.93;2.87;;;;;;;3.28;100.00;100257.09;7392907;19;20416;-57
2023/01/30 10:27:21;;;;;;;10.10;2.50;;;;;;;3.23;100.00;100245.75;7389091;19;20419;-60
2023/01/30 10:29:55;;;;;;;16.73;1.93;;;;;;;3.15;100.00;100240.16;7393765;19;20435;-58
2023/01/30 10:32:29;;;;;;;11.90;1.97;;;;;;;3.14;100.00;100232.38;7396869;19;20431;-62
2023/01/30 10:35:00;;;;;;;7.47;1.70;;;;;;;3.33;100.00;100230.22;7400346;19;20931;-63
2023/01/30 10:37:33;;;;;;;13.10;3.00;;;;;;;3.45;100.00;100236.88;7397410;19;20442;-61
2023/01/30 10:40:07;;;;;;;9.60;1.53;;;;;;;3.52;100.00;100226.25;7399968;19;20410;-58
2023/01/30 10:42:39;;;;;;;16.20;2.90;;;;;;;3.49;100.00;100241.38;7396366;19;20428;-61
2023/01/30 10:45:15;;;;;;;18.73;2.27;;;;;;;3.61;100.00;100247.25;7400276;19;20770;-62
2023/01/30 10:47:53;;;;;;;23.93;2.17;;;;;;;3.73;100.00;100231.78;7396965;19;21025;-63
2023/01/30 10:50:27;;;;;;;14.03;2.77;;;;;;;3.63;100.00;100235.44;7398036;19;20423;-61
2023/01/30 10:53:01;;;;;;;13.17;3.70;;;;;;;3.56;100.00;100263.94;7393639;19;20974;-63
2023/01/30 10:55:35;;;;;;;14.90;2.50;;;;;;;3.43;100.00;100249.50;7398698;19;20395;-58
2023/01/30 10:58:13;;;;;;;25.70;3.23;;;;;;;3.12;100.00;100285.81;7398930;19;20442;-58
2023/01/30 11:00:51;;;;;;;28.97;2.70;;;;;;;2.83;100.00;100211.81;7394202;19;20447;-60
2023/01/30 11:03:24;;;;;;;18.70;4.50;;;;;;;2.60;100.00;100242.56;7399961;19;20776;-59
2023/01/30 11:05:55;;;;;;;10.83;1.47;;;;;;;2.35;100.00;100271.50;7393801;19;20427;-60
2023/01/30 11:08:26;;;;;;;8.90;1.33;;;;;;;2.05;100.00;100271.19;7399898;19;20398;-60
2023/01/30 11:10:57;;;;;;;8.73;1.53;;;;;;;1.95;100.00;100242.56;7394644;19;20435;-61
2023/01/30 11:13:30;;;;;;;3.80;1.10;;;;;;;1.89;100.00;100201.41;7397862;19;20388;-57
2023/01/30 11:16:07;;;;;;;5.23;1.20;;;;;;;1.93;100.00;100193.22;7395545;19;21250;-59
2023/01/30 11:18:46;;;;;;;3.23;1.13;;;;;;;1.93;100.00;100183.03;7398332;19;20407;-54
2023/01/30 11:21:36;;;;;;;5.43;0.70;;;;;;;1.92;100.00;100178.75;7390410;19;20479;-58
2023/01/30 11:24:18;;;;;;;2.00;0.57;;;;;;;1.87;100.00;100180.09;7398728;19;20436;-58
2023/01/30 11:26:48;;;;;;;5.90;1.03;;;;;;;1.89;100.00;100155.63;7393039;19;20459;-59
2023/01/30 11:29:26;;;;;;;9.30;0.87;;;;;;;1.86;100.00;100123.22;7398517;19;20388;-56
2023/01/30 11:32:03;;;;;;;3.60;0.93;;;;;;;1.94;100.00;100133.91;7394785;19;20823;-59
2023/01/30 11:34:32;;;;;;;6.07;1.10;;;;;;;1.95;100.00;100128.03;7397001;19;20410;-54
2023/01/30 11:37:23;;;;;;;10.40;1.80;;;;;;;2.01;100.00;100122.50;7392771;19;20453;-55
2023/01/30 11:39:54;;;;;;;12.73;2.70;;;;;;;2.07;100.00;100092.34;7394801;19;20410;-55
2023/01/30 11:42:27;;;;;;;11.13;1.67;;;;;;;2.14;100.00;100091.97;7394009;19;20799;-56
2023/01/30 11:44:58;;;;;;;11.70;2.10;;;;;;;2.23;100.00;100084.06;7398070;19;20418;-56
2023/01/30 11:47:53;;;;;;;19.10;2.50;;;;;;;2.39;100.00;100064.66;7395082;19;20447;-53
2023/01/30 11:50:33;;;;;;;11.37;1.80;;;;;;;2.46;100.00;100051.53;7397171;19;20435;-55